createdAt,value
2024-01-25T00:02:00.915Z,3.00
2024-01-25T00:04:28.117Z,3.00
2024-01-25T00:06:55.437Z,3.00
2024-01-25T00:09:22.769Z,1.00
2024-01-25T00:11:49.973Z,1.00
2024-01-25T00:14:17.453Z,1.40
2024-01-25T00:16:44.853Z,2.20
2024-01-25T00:19:12.234Z,2.20
2024-01-25T00:21:46.021Z,3.00
2024-01-25T00:24:14.157Z,2.60
2024-01-25T00:26:41.409Z,1.00
2024-01-25T00:29:08.688Z,1.00
2024-01-25T00:31:36.047Z,1.00
2024-01-25T00:34:04.531Z,1.00
2024-01-25T00:36:32.423Z,0.00
2024-01-25T00:38:59.900Z,1.00
2024-01-25T00:41:27.579Z,1.00
2024-01-25T00:43:55.148Z,0.40
2024-01-25T00:46:22.564Z,0.60
2024-01-25T00:48:50.247Z,1.00
2024-01-25T00:51:23.660Z,0.00
2024-01-25T00:53:51.412Z,1.00
2024-01-25T00:56:18.864Z,0.60
2024-01-25T00:58:46.697Z,1.00
2024-01-25T01:01:14.522Z,1.00
2024-01-25T01:03:42.084Z,3.00
2024-01-25T01:06:10.370Z,3.00
2024-01-25T01:08:38.100Z,1.00
2024-01-25T01:11:06.005Z,0.40
2024-01-25T01:13:33.469Z,1.00
2024-01-25T01:16:00.909Z,3.00
2024-01-25T01:18:28.172Z,1.00
2024-01-25T01:20:55.685Z,1.00
2024-01-25T01:23:22.815Z,0.40
2024-01-25T01:25:50.059Z,1.00
2024-01-25T01:28:17.624Z,1.80
2024-01-25T01:30:45.490Z,1.00
2024-01-25T01:33:12.943Z,1.00
2024-01-25T01:35:40.673Z,0.80
2024-01-25T01:38:08.268Z,0.40
2024-01-25T01:40:35.549Z,0.00
2024-01-25T01:43:03.449Z,0.00
2024-01-25T01:45:31.193Z,1.00
2024-01-25T01:47:58.969Z,1.00
2024-01-25T01:50:26.872Z,1.00
2024-01-25T01:52:54.708Z,1.00
2024-01-25T01:55:22.742Z,0.00
2024-01-25T01:57:50.403Z,0.00
2024-01-25T02:00:18.240Z,0.00
2024-01-25T02:02:46.525Z,1.00
2024-01-25T02:05:14.888Z,1.40
2024-01-25T02:07:42.510Z,1.00
2024-01-25T02:10:10.707Z,2.60
2024-01-25T02:12:38.689Z,1.00
2024-01-25T02:15:06.570Z,0.00
2024-01-25T02:17:33.950Z,1.00
2024-01-25T02:20:04.092Z,1.00
2024-01-25T02:22:31.494Z,1.00
2024-01-25T02:24:58.777Z,1.40
2024-01-25T02:27:26.208Z,3.00
2024-01-25T02:29:53.506Z,1.00
2024-01-25T02:32:20.946Z,1.00
2024-01-25T02:34:48.464Z,1.00
2024-01-25T02:37:16.343Z,1.00
2024-01-25T02:39:44.430Z,1.00
2024-01-25T02:42:12.385Z,1.00
2024-01-25T02:44:39.455Z,1.00
2024-01-25T02:47:07.056Z,1.00
2024-01-25T02:49:34.638Z,1.00
2024-01-25T02:52:02.241Z,1.00
2024-01-25T02:54:29.425Z,2.20
2024-01-25T02:56:56.668Z,3.80
2024-01-25T02:59:23.813Z,0.00
2024-01-25T03:01:51.372Z,1.00
2024-01-25T03:04:18.964Z,1.00
2024-01-25T03:06:46.553Z,1.00
2024-01-25T03:09:14.668Z,0.80
2024-01-25T03:11:41.765Z,0.00
2024-01-25T03:14:09.199Z,1.00
2024-01-25T03:16:36.554Z,1.40
2024-01-25T03:19:04.167Z,0.80
2024-01-25T03:21:31.561Z,0.60
2024-01-25T03:23:59.024Z,0.00
2024-01-25T03:26:29.062Z,1.00
2024-01-25T03:28:56.788Z,1.00
2024-01-25T03:31:24.207Z,3.00
2024-01-25T03:33:51.997Z,3.20
2024-01-25T03:36:19.353Z,2.20
2024-01-25T03:38:46.577Z,1.00
2024-01-25T03:41:15.245Z,0.00
2024-01-25T03:43:44.490Z,3.00
2024-01-25T03:46:14.083Z,1.00
2024-01-25T03:48:41.680Z,3.00
2024-01-25T03:51:09.235Z,3.00
2024-01-25T03:53:36.639Z,1.00
2024-01-25T03:56:04.050Z,1.00
2024-01-25T03:58:31.487Z,1.00
2024-01-25T04:00:59.848Z,1.00
2024-01-25T04:03:27.218Z,1.00
2024-01-25T04:05:54.648Z,1.00
2024-01-25T04:08:21.792Z,1.00
2024-01-25T04:10:49.076Z,1.80
2024-01-25T04:13:16.716Z,0.40
2024-01-25T04:15:44.155Z,1.00
2024-01-25T04:18:11.658Z,1.00
2024-01-25T04:20:39.346Z,1.00
2024-01-25T04:23:06.665Z,1.00
2024-01-25T04:25:34.769Z,1.00
2024-01-25T04:28:03.595Z,0.40
2024-01-25T04:30:32.876Z,3.00
2024-01-25T04:33:01.526Z,1.40
2024-01-25T04:35:29.071Z,1.00
2024-01-25T04:37:56.340Z,1.00
2024-01-25T04:40:23.976Z,3.00
2024-01-25T04:42:51.242Z,3.00
2024-01-25T04:45:18.493Z,0.00
2024-01-25T04:47:45.917Z,2.20
2024-01-25T04:50:13.552Z,0.60
2024-01-25T04:52:40.926Z,1.00
2024-01-25T04:55:08.489Z,1.00
2024-01-25T04:57:35.629Z,1.00
2024-01-25T05:00:02.826Z,1.40
2024-01-25T05:02:30.592Z,3.00
2024-01-25T05:04:57.983Z,3.00
2024-01-25T05:07:29.900Z,1.00
2024-01-25T05:09:58.679Z,3.00
2024-01-25T05:12:25.733Z,1.00
2024-01-25T05:14:52.945Z,1.00
2024-01-25T05:17:20.175Z,1.00
2024-01-25T05:19:47.929Z,1.00
2024-01-25T05:22:15.610Z,1.00
2024-01-25T05:24:42.899Z,1.00
2024-01-25T05:27:10.029Z,1.00
2024-01-25T05:29:37.340Z,3.40
2024-01-25T05:32:05.164Z,3.00
2024-01-25T05:34:32.895Z,3.00
2024-01-25T05:36:59.999Z,3.00
2024-01-25T05:39:27.363Z,1.00
2024-01-25T05:41:54.543Z,4.00
2024-01-25T05:44:21.936Z,1.00
2024-01-25T05:46:49.420Z,1.00
2024-01-25T05:49:16.704Z,1.00
2024-01-25T05:51:44.301Z,1.00
2024-01-25T05:54:12.016Z,1.80
2024-01-25T05:56:39.400Z,1.80
2024-01-25T05:59:06.673Z,1.00
2024-01-25T06:01:34.235Z,1.00
2024-01-25T06:04:01.579Z,2.60
2024-01-25T06:06:29.218Z,1.00
2024-01-25T06:09:02.613Z,0.00
2024-01-25T06:11:39.151Z,0.80
2024-01-25T06:14:10.614Z,1.80
2024-01-25T06:16:37.877Z,2.60
2024-01-25T06:19:05.889Z,1.00
2024-01-25T06:21:35.650Z,3.00
2024-01-25T06:24:03.712Z,1.00
2024-01-25T06:26:31.133Z,1.00
2024-01-25T06:28:58.574Z,1.00
2024-01-25T06:31:26.343Z,1.40
2024-01-25T06:33:54.550Z,1.00
2024-01-25T06:36:22.195Z,1.00
2024-01-25T06:38:49.671Z,1.00
2024-01-25T06:41:17.700Z,1.00
2024-01-25T06:43:45.459Z,1.00
2024-01-25T06:46:12.673Z,0.40
2024-01-25T06:48:40.105Z,1.00
2024-01-25T06:51:07.338Z,1.00
2024-01-25T06:53:34.602Z,1.00
2024-01-25T06:56:01.863Z,1.00
2024-01-25T06:58:29.540Z,1.00
2024-01-25T07:00:57.244Z,0.40
2024-01-25T07:03:24.900Z,1.00
2024-01-25T07:05:52.558Z,0.00
2024-01-25T07:08:19.829Z,0.80
2024-01-25T07:10:47.152Z,1.00
2024-01-25T07:13:14.744Z,0.60
2024-01-25T07:15:42.448Z,0.20
2024-01-25T07:18:10.134Z,2.20
2024-01-25T07:20:37.692Z,1.00
2024-01-25T07:23:05.313Z,1.00
2024-01-25T07:25:32.600Z,1.00
2024-01-25T07:28:00.549Z,1.00
2024-01-25T07:30:27.890Z,0.00
2024-01-25T07:32:55.362Z,0.00
2024-01-25T07:35:25.232Z,1.00
2024-01-25T07:37:52.722Z,0.00
2024-01-25T07:42:49.316Z,1.00
2024-01-25T07:45:16.879Z,0.00
2024-01-25T07:47:45.495Z,0.20
2024-01-25T07:50:13.138Z,1.00
2024-01-25T07:52:40.644Z,0.00
2024-01-25T07:55:08.325Z,1.00
2024-01-25T07:57:35.735Z,1.00
2024-01-25T08:00:03.210Z,0.00
2024-01-25T08:02:32.426Z,0.00
2024-01-25T08:04:59.832Z,0.00
2024-01-25T08:07:27.102Z,0.40
2024-01-25T08:09:54.691Z,0.00
2024-01-25T08:12:22.217Z,0.80
2024-01-25T08:14:49.359Z,1.00
2024-01-25T08:17:16.793Z,0.00
2024-01-25T08:19:44.539Z,0.00
2024-01-25T08:22:12.155Z,0.60
2024-01-25T08:24:41.686Z,1.00
2024-01-25T08:27:09.949Z,1.00
2024-01-25T08:29:38.947Z,1.00
2024-01-25T08:32:06.570Z,1.00
2024-01-25T08:34:34.294Z,1.00
2024-01-25T08:37:01.634Z,1.00
2024-01-25T08:39:29.444Z,0.20
2024-01-25T08:41:58.885Z,2.00
2024-01-25T08:44:26.408Z,2.00
2024-01-25T08:46:53.632Z,0.60
2024-01-25T08:49:22.205Z,2.00
2024-01-25T08:51:49.788Z,1.00
2024-01-25T08:54:17.209Z,0.60
2024-01-25T08:56:44.727Z,2.00
2024-01-25T08:59:12.368Z,0.80
2024-01-25T09:01:39.704Z,1.00
2024-01-25T09:04:07.384Z,1.00
2024-01-25T09:06:34.793Z,1.20
2024-01-25T09:09:02.013Z,1.00
2024-01-25T09:11:29.544Z,1.00
2024-01-25T09:13:56.710Z,1.20
2024-01-25T09:16:24.587Z,0.20
2024-01-25T09:18:52.251Z,0.00
2024-01-25T09:21:20.093Z,1.00
2024-01-25T09:23:47.262Z,2.00
2024-01-25T09:26:14.781Z,2.00
2024-01-25T09:28:42.868Z,3.60
2024-01-25T09:31:10.807Z,3.60
2024-01-25T09:33:38.600Z,2.00
2024-01-25T09:36:06.974Z,2.00
2024-01-25T09:38:34.972Z,1.20
2024-01-25T09:41:02.819Z,1.80
2024-01-25T09:43:31.951Z,1.00
2024-01-25T09:46:01.018Z,1.00
2024-01-25T09:48:28.933Z,2.00
2024-01-25T09:50:57.865Z,2.00
2024-01-25T09:53:25.711Z,2.00
2024-01-25T09:56:03.589Z,1.00
2024-01-25T09:58:47.346Z,1.00
2024-01-25T10:01:19.748Z,1.40
2024-01-25T10:03:50.594Z,1.40
2024-01-25T10:06:19.195Z,2.00
2024-01-25T10:08:47.608Z,3.20
2024-01-25T10:11:15.871Z,4.00
2024-01-25T10:13:44.566Z,2.20
2024-01-25T10:16:14.050Z,2.40
2024-01-25T10:18:43.015Z,2.00
2024-01-25T10:21:15.044Z,2.00
2024-01-25T10:23:46.597Z,2.40
2024-01-25T10:26:14.168Z,4.00
2024-01-25T10:28:42.013Z,5.00
2024-01-25T10:31:10.519Z,1.20
2024-01-25T10:33:40.239Z,0.00
2024-01-25T10:36:10.229Z,4.00
2024-01-25T10:38:38.943Z,2.00
2024-01-25T10:41:07.252Z,4.60
2024-01-25T10:43:35.522Z,2.80
2024-01-25T10:46:05.289Z,4.00
2024-01-25T10:48:34.246Z,4.40
2024-01-25T10:51:04.857Z,1.00
2024-01-25T10:53:34.525Z,5.00
2024-01-25T10:56:02.968Z,5.60
2024-01-25T10:58:42.668Z,4.20
2024-01-25T11:01:16.297Z,6.00
2024-01-25T11:03:48.897Z,10.20
2024-01-25T11:06:17.079Z,9.00
2024-01-25T11:08:44.854Z,5.00
2024-01-25T11:11:15.445Z,4.00
2024-01-25T11:13:44.163Z,5.00
2024-01-25T11:16:36.438Z,3.60
2024-01-25T11:19:07.327Z,2.60
2024-01-25T11:21:43.213Z,4.00
2024-01-25T11:24:38.593Z,4.40
2024-01-25T11:27:06.677Z,5.00
2024-01-25T11:29:35.215Z,4.80
2024-01-25T11:32:05.427Z,3.20
2024-01-25T11:34:33.433Z,3.00
2024-01-25T11:37:00.843Z,4.00
2024-01-25T11:39:28.971Z,6.80
2024-01-25T11:41:56.632Z,5.00
2024-01-25T11:44:25.813Z,5.20
2024-01-25T11:46:56.833Z,5.60
2024-01-25T11:49:26.888Z,6.00
2024-01-25T11:51:54.723Z,5.60
2024-01-25T11:54:22.332Z,2.40
2024-01-25T11:56:49.988Z,6.00
2024-01-25T11:59:17.681Z,7.20
2024-01-25T12:01:45.494Z,5.00
2024-01-25T12:04:13.078Z,4.40
2024-01-25T12:06:40.823Z,3.20
2024-01-25T12:09:12.473Z,3.40
2024-01-25T12:11:42.358Z,4.00
2024-01-25T12:14:11.116Z,2.40
2024-01-25T12:16:39.625Z,2.00
2024-01-25T12:19:07.952Z,2.00
2024-01-25T12:21:36.697Z,2.00
2024-01-25T12:24:04.972Z,0.00
2024-01-25T12:26:36.716Z,4.00
2024-01-25T12:29:04.705Z,3.60
2024-01-25T12:31:32.699Z,4.80
2024-01-25T12:34:01.922Z,3.80
2024-01-25T12:36:29.329Z,3.00
2024-01-25T12:38:56.460Z,2.20
2024-01-25T12:41:23.957Z,2.00
2024-01-25T12:43:51.234Z,2.60
2024-01-25T12:46:26.795Z,1.00
2024-01-25T12:48:57.720Z,0.00
2024-01-25T12:51:28.509Z,1.20
2024-01-25T12:53:59.957Z,2.00
2024-01-25T12:56:27.602Z,2.60
2024-01-25T12:58:54.961Z,4.00
2024-01-25T13:01:22.731Z,2.80
2024-01-25T13:03:50.747Z,3.60
2024-01-25T13:06:18.621Z,5.00
2024-01-25T13:08:46.064Z,2.00
2024-01-25T13:11:14.404Z,4.60
2024-01-25T13:13:41.824Z,1.20
2024-01-25T13:16:09.485Z,4.00
2024-01-25T13:18:36.918Z,2.00
2024-01-25T13:21:04.402Z,5.00
2024-01-25T13:23:31.791Z,4.80
2024-01-25T13:25:59.224Z,2.00
2024-01-25T13:28:26.535Z,2.00
2024-01-25T13:30:55.659Z,2.00
2024-01-25T13:33:23.339Z,1.80
2024-01-25T13:35:50.892Z,2.00
2024-01-25T13:38:18.437Z,2.80
2024-01-25T13:40:45.853Z,2.00
2024-01-25T13:43:13.105Z,2.80
2024-01-25T13:45:40.353Z,2.00
2024-01-25T13:48:08.494Z,2.00
2024-01-25T13:50:35.628Z,2.00
2024-01-25T13:53:03.104Z,2.80
2024-01-25T13:55:30.468Z,2.00
2024-01-25T13:57:57.689Z,4.00
2024-01-25T14:00:25.035Z,2.00
2024-01-25T14:02:52.460Z,4.40
2024-01-25T14:05:19.874Z,3.20
2024-01-25T14:07:47.261Z,4.00
2024-01-25T14:10:15.851Z,2.00
2024-01-25T14:12:43.205Z,3.60
2024-01-25T14:15:10.772Z,4.00
2024-01-25T14:17:39.224Z,2.00
2024-01-25T14:20:07.439Z,1.40
2024-01-25T14:22:36.439Z,2.00
2024-01-25T14:25:05.289Z,1.00
2024-01-25T14:27:34.595Z,2.00
2024-01-25T14:30:02.004Z,2.80
2024-01-25T14:32:29.767Z,2.00
2024-01-25T14:34:57.538Z,1.40
2024-01-25T14:37:24.937Z,1.80
2024-01-25T14:40:03.070Z,1.00
2024-01-25T14:42:40.370Z,0.80
2024-01-25T14:45:09.004Z,1.00
2024-01-25T14:47:36.528Z,1.00
2024-01-25T14:50:04.242Z,2.00
2024-01-25T14:52:35.421Z,2.00
2024-01-25T14:55:06.337Z,2.00
2024-01-25T14:57:33.988Z,2.40
2024-01-25T15:00:01.430Z,1.40
2024-01-25T15:02:28.700Z,1.00
2024-01-25T15:04:55.934Z,1.40
2024-01-25T15:07:23.235Z,1.00
2024-01-25T15:09:50.712Z,1.00
2024-01-25T15:12:19.727Z,1.00
2024-01-25T15:14:47.170Z,1.00
2024-01-25T15:17:14.546Z,0.00
2024-01-25T15:19:41.959Z,1.00
2024-01-25T15:22:09.623Z,0.60
2024-01-25T15:24:37.115Z,0.00
2024-01-25T15:27:04.844Z,2.00
2024-01-25T15:29:32.547Z,2.00
2024-01-25T15:31:59.985Z,2.00
2024-01-25T15:34:27.727Z,1.00
2024-01-25T15:36:55.263Z,1.00
2024-01-25T15:39:23.829Z,0.00
2024-01-25T15:41:51.939Z,1.00
2024-01-25T15:44:19.162Z,0.80
2024-01-25T15:46:46.465Z,1.00
2024-01-25T15:49:14.140Z,1.20
2024-01-25T15:51:41.452Z,2.00
2024-01-25T15:54:08.945Z,2.00
2024-01-25T15:56:36.131Z,2.40
2024-01-25T15:59:04.869Z,1.00
2024-01-25T16:01:32.268Z,1.00
2024-01-25T16:03:59.871Z,1.60
2024-01-25T16:06:27.357Z,1.60
2024-01-25T16:08:54.811Z,1.00
2024-01-25T16:11:23.256Z,1.00
2024-01-25T16:13:50.666Z,1.00
2024-01-25T16:16:18.456Z,1.00
2024-01-25T16:18:45.923Z,1.80
2024-01-25T16:21:13.618Z,0.20
2024-01-25T16:23:41.117Z,1.00
2024-01-25T16:26:08.299Z,1.00
2024-01-25T16:28:35.780Z,0.00
2024-01-25T16:31:03.170Z,0.60
2024-01-25T16:33:30.621Z,1.00
2024-01-25T16:35:58.925Z,1.00
2024-01-25T16:38:26.618Z,1.00
2024-01-25T16:40:53.980Z,1.00
2024-01-25T16:43:21.440Z,1.00
2024-01-25T16:45:48.617Z,1.00
2024-01-25T16:48:18.080Z,1.00
2024-01-25T16:50:48.478Z,1.00
2024-01-25T16:53:15.605Z,0.20
2024-01-25T16:55:42.996Z,0.20
2024-01-25T16:58:10.336Z,1.00
2024-01-25T17:00:37.610Z,1.00
2024-01-25T17:03:05.145Z,1.00
2024-01-25T17:05:32.663Z,1.00
2024-01-25T17:07:59.907Z,0.20
2024-01-25T17:10:27.830Z,0.60
2024-01-25T17:12:55.510Z,0.00
2024-01-25T17:15:22.919Z,0.00
2024-01-25T17:17:50.422Z,1.00
2024-01-25T17:20:19.226Z,0.60
2024-01-25T17:22:46.344Z,2.40
2024-01-25T17:25:15.872Z,2.00
2024-01-25T17:27:43.174Z,2.00
2024-01-25T17:30:11.133Z,1.80
2024-01-25T17:32:38.492Z,1.00
2024-01-25T17:35:06.172Z,1.00
2024-01-25T17:37:33.588Z,1.80
2024-01-25T17:40:00.915Z,1.00
2024-01-25T17:42:28.299Z,1.00
2024-01-25T17:44:55.673Z,0.00
2024-01-25T17:47:22.793Z,0.00
2024-01-25T17:49:50.366Z,0.40
2024-01-25T17:52:17.994Z,0.20
2024-01-25T17:54:45.993Z,0.60
2024-01-25T17:57:13.243Z,1.00
2024-01-25T17:59:40.579Z,1.00
2024-01-25T18:02:08.109Z,1.00
2024-01-25T18:04:36.121Z,2.40
2024-01-25T18:07:03.492Z,1.60
2024-01-25T18:09:30.860Z,2.80
2024-01-25T18:11:58.523Z,2.00
2024-01-25T18:14:25.875Z,3.60
2024-01-25T18:16:53.053Z,3.20
2024-01-25T18:19:20.742Z,2.40
2024-01-25T18:21:48.449Z,3.60
2024-01-25T18:24:16.142Z,2.80
2024-01-25T18:26:45.648Z,2.00
2024-01-25T18:29:14.727Z,2.00
2024-01-25T18:31:42.093Z,1.40
2024-01-25T18:34:09.699Z,0.00
2024-01-25T18:36:39.139Z,0.00
2024-01-25T18:39:06.489Z,1.00
2024-01-25T18:41:34.930Z,1.00
2024-01-25T18:44:02.506Z,1.80
2024-01-25T18:46:29.721Z,0.00
2024-01-25T18:48:57.094Z,0.00
2024-01-25T18:51:24.509Z,0.00
2024-01-25T18:53:52.045Z,0.00
2024-01-25T18:56:27.031Z,0.00
2024-01-25T18:58:56.833Z,0.00
2024-01-25T19:01:25.145Z,0.00
2024-01-25T19:03:53.040Z,1.00
2024-01-25T19:06:20.715Z,0.00
2024-01-25T19:08:48.758Z,0.00
2024-01-25T19:11:15.956Z,0.00
2024-01-25T19:13:43.158Z,0.20
2024-01-25T19:16:11.114Z,0.00
2024-01-25T19:18:40.218Z,0.00
2024-01-25T19:21:08.492Z,0.00
2024-01-25T19:23:38.106Z,0.00
2024-01-25T19:28:32.945Z,0.00
2024-01-25T19:31:00.945Z,0.00
2024-01-25T19:33:31.334Z,0.00
2024-01-25T19:35:58.782Z,0.20
2024-01-25T19:38:26.283Z,0.00
2024-01-25T19:40:53.646Z,0.00
2024-01-25T19:43:21.035Z,0.00
2024-01-25T19:45:49.276Z,0.20
2024-01-25T19:48:16.685Z,0.60
2024-01-25T19:50:44.123Z,0.80
2024-01-25T19:53:13.026Z,1.00
2024-01-25T19:55:40.496Z,2.00
2024-01-25T19:58:07.826Z,2.00
2024-01-25T20:00:35.660Z,2.40
2024-01-25T20:03:03.450Z,2.40
2024-01-25T20:05:32.935Z,0.80
2024-01-25T20:08:01.206Z,1.00
2024-01-25T20:10:28.560Z,1.40
2024-01-25T20:12:56.322Z,11.00
2024-01-25T20:15:24.787Z,22.00
2024-01-25T20:17:52.389Z,17.50
2024-01-25T20:20:21.460Z,13.00
2024-01-25T20:22:49.012Z,8.80
2024-01-25T20:25:16.296Z,8.00
2024-01-25T20:27:43.644Z,7.60
2024-01-25T20:30:11.855Z,7.60
2024-01-25T20:32:39.267Z,7.00
2024-01-25T20:35:06.837Z,7.00
2024-01-25T20:37:33.986Z,4.00
2024-01-25T20:40:01.536Z,5.00
2024-01-25T20:42:29.050Z,4.00
2024-01-25T20:44:57.244Z,4.00
2024-01-25T20:47:24.505Z,1.80
2024-01-25T20:49:51.897Z,2.40
2024-01-25T20:52:19.852Z,2.20
2024-01-25T20:54:47.410Z,0.00
2024-01-25T20:57:14.759Z,1.00
2024-01-25T20:59:42.027Z,2.20
2024-01-25T21:02:09.988Z,1.00
2024-01-25T21:04:37.649Z,1.00
2024-01-25T21:07:05.508Z,1.00
2024-01-25T21:09:33.748Z,1.00
2024-01-25T21:12:01.519Z,1.00
2024-01-25T21:14:29.260Z,1.00
2024-01-25T21:16:56.756Z,0.80
2024-01-25T21:19:24.148Z,1.00
2024-01-25T21:21:51.878Z,1.00
2024-01-25T21:24:19.323Z,0.40
2024-01-25T21:26:46.498Z,0.00
2024-01-25T21:29:14.606Z,0.60
2024-01-25T21:31:43.267Z,0.00
2024-01-25T21:34:13.449Z,0.00
2024-01-25T21:36:41.366Z,1.00
2024-01-25T21:39:08.507Z,1.60
2024-01-25T21:41:35.672Z,1.00
2024-01-25T21:44:04.238Z,1.00
2024-01-25T21:46:31.634Z,0.00
2024-01-25T21:48:59.752Z,1.00
2024-01-25T21:51:27.733Z,0.00
2024-01-25T21:53:55.083Z,0.00
2024-01-25T21:56:22.446Z,0.00
2024-01-25T21:58:50.116Z,0.00
2024-01-25T22:01:17.582Z,0.00
2024-01-25T22:03:45.356Z,0.00
2024-01-25T22:06:13.891Z,0.00
2024-01-25T22:08:41.121Z,0.00
2024-01-25T22:11:08.437Z,0.00
2024-01-25T22:13:35.699Z,0.00
2024-01-25T22:16:03.188Z,0.00
2024-01-25T22:18:30.565Z,0.00
2024-01-25T22:20:58.317Z,0.20
2024-01-25T22:23:26.689Z,0.20
2024-01-25T22:25:54.255Z,0.00
2024-01-25T22:28:22.247Z,0.00
2024-01-25T22:30:49.574Z,1.00
2024-01-25T22:33:16.867Z,0.60
2024-01-25T22:35:44.387Z,0.00
2024-01-25T22:38:11.534Z,0.00
2024-01-25T22:40:38.709Z,0.00
2024-01-25T22:43:06.374Z,0.00
2024-01-25T22:45:33.630Z,0.00
2024-01-25T22:48:00.990Z,0.00
2024-01-25T22:50:28.614Z,0.00
2024-01-25T22:52:55.968Z,0.60
2024-01-25T22:55:23.993Z,0.00
2024-01-25T22:57:51.590Z,0.80
2024-01-25T23:00:22.992Z,1.00
2024-01-25T23:02:51.803Z,0.80
2024-01-25T23:05:21.014Z,0.20
2024-01-25T23:07:49.870Z,0.00
2024-01-25T23:10:20.535Z,0.00
2024-01-25T23:12:49.160Z,0.20
2024-01-25T23:15:16.403Z,0.00
2024-01-25T23:17:44.091Z,0.00
2024-01-25T23:20:13.440Z,0.00
2024-01-25T23:22:41.147Z,0.00
2024-01-25T23:25:09.785Z,0.00
2024-01-25T23:27:38.917Z,0.00
2024-01-25T23:30:07.790Z,0.00
2024-01-25T23:32:36.373Z,0.00
2024-01-25T23:35:05.506Z,0.00
2024-01-25T23:37:32.713Z,0.00
2024-01-25T23:40:01.621Z,0.00
2024-01-25T23:42:29.409Z,0.00
2024-01-25T23:44:57.187Z,0.00
2024-01-25T23:47:25.314Z,0.00
2024-01-25T23:49:53.502Z,0.00
2024-01-25T23:52:20.954Z,0.00
2024-01-25T23:54:48.384Z,0.00
2024-01-25T23:57:15.774Z,0.00
2024-01-25T23:59:43.277Z,0.00
